Time;durP1;ratioP1;P1;durP2;ratioP2;P2;SDS_P1;SDS_P2;PMS_P1;PMS_P2;Temp;Humidity;BMP_temperature;BMP_pressure;BME280_temperature;BME280_humidity;BME280_pressure;Samples;Min_cycle;Max_cycle;Signal;HPM_P1;HPM_P2
2023/02/19 00:01:33;;;;;;;8.17;6.40;;;;;;;;;;5049589;28;20021;-77
2023/02/19 00:04:06;;;;;;;7.47;6.67;;;;;;;;;;5048801;28;20421;-77
2023/02/19 00:06:33;;;;;;;8.03;7.23;;;;;;;;;;5060718;28;20052;-76
2023/02/19 00:08:59;;;;;;;9.13;7.53;;;;;;;;;;5044385;28;20859;-77
2023/02/19 00:11:29;;;;;;;10.03;7.23;;;;;;;;;;5062089;28;20060;-78
2023/02/19 00:13:56;;;;;;;9.77;8.20;;;;;;;;;;5064674;28;21656;-77
2023/02/19 00:16:27;;;;;;;10.50;8.77;;;;;;;;;;5060578;28;20044;-79
2023/02/19 00:18:53;;;;;;;11.53;9.73;;;;;;;;;;5063530;28;20053;-77
2023/02/19 00:21:19;;;;;;;12.43;9.33;;;;;;;;;;5047426;28;20029;-77
2023/02/19 00:23:49;;;;;;;11.87;8.90;;;;;;;;;;5065523;28;20087;-77
2023/02/19 00:26:15;;;;;;;13.07;10.03;;;;;;;;;;5061745;28;20044;-77
2023/02/19 00:28:41;;;;;;;11.23;9.50;;;;;;;;;;5046034;28;20036;-77
2023/02/19 00:31:16;;;;;;;13.67;9.33;;;;;;;;;;5042525;28;20418;-77
2023/02/19 00:33:44;;;;;;;9.63;8.63;;;;;;;;;;5042441;28;20033;-77
2023/02/19 00:36:10;;;;;;;9.57;8.40;;;;;;;;;;5060383;28;20028;-77
2023/02/19 00:38:40;;;;;;;10.87;8.77;;;;;;;;;;5042459;28;20075;-77
2023/02/19 00:41:19;;;;;;;12.03;8.43;;;;;;;;;;5061271;28;20354;-76
2023/02/19 00:43:48;;;;;;;9.27;7.73;;;;;;;;;;5060481;28;20480;-77
2023/02/19 00:46:18;;;;;;;9.57;8.10;;;;;;;;;;5043122;28;20063;-76
2023/02/19 00:48:45;;;;;;;10.63;7.77;;;;;;;;;;5045322;28;20081;-76
2023/02/19 00:51:11;;;;;;;12.97;9.03;;;;;;;;;;5044643;28;20523;-76
2023/02/19 00:53:39;;;;;;;10.37;8.00;;;;;;;;;;5050280;28;20032;-77
2023/02/19 00:56:05;;;;;;;12.33;7.57;;;;;;;;;;5044243;28;20105;-77
2023/02/19 00:58:31;;;;;;;10.33;7.90;;;;;;;;;;5059170;28;20036;-77
2023/02/19 01:00:57;;;;;;;10.70;8.03;;;;;;;;;;5050068;28;20031;-76
2023/02/19 01:03:24;;;;;;;10.07;7.57;;;;;;;;;;5042159;28;20044;-77
2023/02/19 01:05:50;;;;;;;10.87;6.80;;;;;;;;;;5046307;28;20469;-77
2023/02/19 01:08:16;;;;;;;8.13;6.47;;;;;;;;;;5047262;28;20372;-76
2023/02/19 01:10:43;;;;;;;5.93;4.87;;;;;;;;;;5040503;28;20036;-75
2023/02/19 01:13:09;;;;;;;6.83;6.00;;;;;;;;;;5059677;28;20091;-76
2023/02/19 01:15:35;;;;;;;7.43;5.77;;;;;;;;;;5048993;28;20028;-76
2023/02/19 01:18:01;;;;;;;8.00;5.80;;;;;;;;;;5043626;28;20047;-76
2023/02/19 01:20:29;;;;;;;7.80;6.13;;;;;;;;;;5058339;28;20033;-76
2023/02/19 01:22:55;;;;;;;7.50;5.97;;;;;;;;;;5042917;28;20025;-77
2023/02/19 01:25:21;;;;;;;8.17;6.83;;;;;;;;;;5058304;28;20104;-77
2023/02/19 01:27:47;;;;;;;10.70;6.97;;;;;;;;;;5040080;28;20426;-77
2023/02/19 01:30:13;;;;;;;9.67;5.77;;;;;;;;;;5057508;28;20025;-77
2023/02/19 01:32:39;;;;;;;9.00;6.13;;;;;;;;;;5043540;28;20531;-77
2023/02/19 01:35:06;;;;;;;11.77;6.47;;;;;;;;;;5050335;28;20032;-76
2023/02/19 01:37:32;;;;;;;10.10;6.00;;;;;;;;;;5050427;28;20110;-77
2023/02/19 01:39:58;;;;;;;7.53;5.87;;;;;;;;;;5050669;28;20069;-77
2023/02/19 01:42:24;;;;;;;8.20;5.43;;;;;;;;;;5058054;28;20103;-77
2023/02/19 01:45:08;;;;;;;8.00;4.87;;;;;;;;;;5056765;28;20090;-77
2023/02/19 01:47:34;;;;;;;8.27;6.10;;;;;;;;;;5045935;28;20029;-77
2023/02/19 01:50:00;;;;;;;6.80;5.63;;;;;;;;;;5058155;28;20749;-77
2023/02/19 01:52:33;;;;;;;8.60;5.37;;;;;;;;;;5039027;28;20064;-77
2023/02/19 01:55:01;;;;;;;7.82;5.55;;;;;;;;;;5040656;28;20487;-76
2023/02/19 01:57:28;;;;;;;9.50;5.40;;;;;;;;;;5041506;28;20046;-77
2023/02/19 02:00:03;;;;;;;9.07;5.60;;;;;;;;;;5062019;28;20025;-78
2023/02/19 02:02:29;;;;;;;8.07;5.60;;;;;;;;;;5050225;28;20425;-77
2023/02/19 02:04:57;;;;;;;8.50;5.63;;;;;;;;;;5040653;28;20094;-78
2023/02/19 02:10:19;;;;;;;8.17;5.93;;;;;;;;;;5060406;28;20059;-76
2023/02/19 02:12:46;;;;;;;10.63;5.83;;;;;;;;;;5039440;28;20438;-77
2023/02/19 02:15:12;;;;;;;7.97;5.30;;;;;;;;;;5040043;28;20052;-77
2023/02/19 02:17:58;;;;;;;10.80;6.70;;;;;;;;;;5057844;28;20114;-77
2023/02/19 02:20:32;;;;;;;11.00;6.43;;;;;;;;;;5042959;28;20025;-77
2023/02/19 02:23:19;;;;;;;10.97;6.77;;;;;;;;;;5044217;28;20036;-77
2023/02/19 02:25:58;;;;;;;8.93;5.80;;;;;;;;;;5050989;28;20112;-77
2023/02/19 02:28:27;;;;;;;8.87;6.03;;;;;;;;;;5045761;28;20071;-77
2023/02/19 02:31:03;;;;;;;9.33;6.20;;;;;;;;;;5059462;28;21739;-77
2023/02/19 02:33:29;;;;;;;12.63;7.73;;;;;;;;;;5057231;28;20037;-78
2023/02/19 02:36:04;;;;;;;10.67;7.40;;;;;;;;;;5057979;28;20028;-78
2023/02/19 02:38:32;;;;;;;14.27;7.67;;;;;;;;;;5058774;28;20449;-76
2023/02/19 02:41:00;;;;;;;11.40;7.83;;;;;;;;;;5044985;28;20029;-75
2023/02/19 02:43:26;;;;;;;14.37;8.43;;;;;;;;;;5055821;28;20028;-77
2023/02/19 02:45:52;;;;;;;11.77;8.00;;;;;;;;;;5048940;28;20021;-78
2023/02/19 02:48:18;;;;;;;11.70;7.73;;;;;;;;;;5051195;28;20040;-77
2023/02/19 02:50:51;;;;;;;11.60;7.57;;;;;;;;;;5052906;28;20024;-77
2023/02/19 02:56:05;;;;;;;12.80;7.67;;;;;;;;;;5059334;28;20051;-77
2023/02/19 02:58:34;;;;;;;9.03;6.40;;;;;;;;;;5053434;28;20098;-77
2023/02/19 03:04:00;;;;;;;13.67;7.90;;;;;;;;;;5072434;28;20039;-77
2023/02/19 03:06:29;;;;;;;12.27;8.60;;;;;;;;;;5046790;28;20051;-77
2023/02/19 03:09:06;;;;;;;11.60;8.00;;;;;;;;;;5053645;28;20028;-77
2023/02/19 03:20:13;;;;;;;16.53;9.57;;;;;;;;;;5076208;28;20047;-77
2023/02/19 03:22:42;;;;;;;13.63;8.43;;;;;;;;;;5045870;28;20025;-77
2023/02/19 03:28:03;;;;;;;20.70;9.77;;;;;;;;;;5063800;28;20437;-78
2023/02/19 03:30:31;;;;;;;15.33;10.10;;;;;;;;;;5059608;28;20063;-78
2023/02/19 03:32:59;;;;;;;16.63;9.53;;;;;;;;;;5056219;28;20041;-78
2023/02/19 03:35:27;;;;;;;12.60;8.90;;;;;;;;;;5054990;28;20092;-77
2023/02/19 03:38:00;;;;;;;18.50;9.53;;;;;;;;;;5070703;28;20020;-78
2023/02/19 03:40:27;;;;;;;17.70;9.87;;;;;;;;;;5052325;28;20224;-78
2023/02/19 03:43:17;;;;;;;15.30;9.97;;;;;;;;;;5056812;28;20077;-78
2023/02/19 03:45:44;;;;;;;15.93;9.63;;;;;;;;;;5050462;28;20588;-77
2023/02/19 03:48:22;;;;;;;19.43;10.43;;;;;;;;;;5045906;28;20052;-77
2023/02/19 03:50:51;;;;;;;20.13;10.93;;;;;;;;;;5059009;28;20036;-77
2023/02/19 03:53:23;;;;;;;18.03;9.83;;;;;;;;;;5071276;28;20425;-78
2023/02/19 03:55:49;;;;;;;18.38;10.52;;;;;;;;;;5059219;28;20038;-77
2023/02/19 03:58:18;;;;;;;20.20;10.17;;;;;;;;;;5044991;28;20108;-77
2023/02/19 04:00:49;;;;;;;18.03;11.30;;;;;;;;;;5051991;28;20032;-77
2023/02/19 04:03:37;;;;;;;19.17;9.00;;;;;;;;;;5057637;28;20107;-77
2023/02/19 04:06:04;;;;;;;20.90;11.23;;;;;;;;;;5046102;28;20341;-77
2023/02/19 04:08:35;;;;;;;20.17;11.33;;;;;;;;;;5071764;28;20448;-76
2023/02/19 04:11:01;;;;;;;19.80;10.30;;;;;;;;;;5062580;28;20047;-77
2023/02/19 04:13:30;;;;;;;20.97;12.03;;;;;;;;;;5068515;28;20024;-77
2023/02/19 04:15:57;;;;;;;25.70;12.33;;;;;;;;;;5042576;28;20029;-77
2023/02/19 04:18:28;;;;;;;21.87;12.63;;;;;;;;;;5044592;28;20028;-77
2023/02/19 04:20:54;;;;;;;24.03;14.07;;;;;;;;;;5058162;28;20040;-77
2023/02/19 04:23:22;;;;;;;24.07;13.73;;;;;;;;;;5046036;28;20459;-77
2023/02/19 04:25:56;;;;;;;22.40;13.23;;;;;;;;;;5043651;28;20075;-77
2023/02/19 04:28:22;;;;;;;31.57;14.20;;;;;;;;;;5060708;28;20037;-76
2023/02/19 04:30:48;;;;;;;25.00;14.30;;;;;;;;;;5041978;28;20752;-76
2023/02/19 04:33:14;;;;;;;28.40;13.90;;;;;;;;;;5044489;28;20119;-77
2023/02/19 04:35:40;;;;;;;28.10;15.70;;;;;;;;;;5044743;28;20425;-77
2023/02/19 04:38:06;;;;;;;28.50;15.73;;;;;;;;;;5045720;28;20043;-78
2023/02/19 04:40:32;;;;;;;32.03;17.33;;;;;;;;;;5049447;28;20441;-76
2023/02/19 04:42:58;;;;;;;32.13;16.57;;;;;;;;;;5046554;28;20039;-77
2023/02/19 04:45:24;;;;;;;29.23;16.80;;;;;;;;;;5063153;28;20033;-77
2023/02/19 04:47:50;;;;;;;35.87;17.27;;;;;;;;;;5045077;28;20039;-77
2023/02/19 04:50:16;;;;;;;41.70;19.47;;;;;;;;;;5060470;28;20047;-78
2023/02/19 04:52:42;;;;;;;38.60;17.13;;;;;;;;;;5044293;28;20032;-77
2023/02/19 04:55:08;;;;;;;35.80;18.23;;;;;;;;;;5060848;28;20119;-78
2023/02/19 04:57:34;;;;;;;34.70;17.30;;;;;;;;;;5044247;28;20098;-77
2023/02/19 05:00:00;;;;;;;29.23;16.00;;;;;;;;;;5043657;28;20024;-78
2023/02/19 05:02:26;;;;;;;34.20;16.23;;;;;;;;;;5058507;28;20111;-78
2023/02/19 05:04:55;;;;;;;36.40;17.30;;;;;;;;;;5044542;28;20082;-77
2023/02/19 05:07:21;;;;;;;39.23;18.63;;;;;;;;;;5062328;28;20396;-77
2023/02/19 05:09:47;;;;;;;34.33;17.87;;;;;;;;;;5060707;28;20036;-77
2023/02/19 05:12:13;;;;;;;38.93;19.60;;;;;;;;;;5043464;28;20090;-76
2023/02/19 05:14:39;;;;;;;30.50;16.53;;;;;;;;;;5046475;28;20063;-77
2023/02/19 05:17:04;;;;;;;32.87;17.63;;;;;;;;;;5059433;28;20033;-76
2023/02/19 05:19:33;;;;;;;40.90;21.57;;;;;;;;;;5059506;28;20059;-75
2023/02/19 05:21:59;;;;;;;42.77;21.73;;;;;;;;;;5041304;28;20033;-77
2023/02/19 05:24:26;;;;;;;42.03;22.10;;;;;;;;;;5059279;28;20032;-76
2023/02/19 05:26:52;;;;;;;43.80;20.37;;;;;;;;;;5059665;28;20043;-76
2023/02/19 05:29:18;;;;;;;35.87;19.30;;;;;;;;;;5059506;28;20037;-77
2023/02/19 05:31:44;;;;;;;35.63;19.73;;;;;;;;;;5058266;28;20529;-77
2023/02/19 05:34:10;;;;;;;53.93;24.63;;;;;;;;;;5042348;28;20120;-77
2023/02/19 05:36:40;;;;;;;36.77;19.73;;;;;;;;;;5048154;28;20036;-76
2023/02/19 05:39:10;;;;;;;37.03;19.70;;;;;;;;;;5057791;28;20992;-77
2023/02/19 05:41:37;;;;;;;35.37;20.13;;;;;;;;;;5041955;28;20084;-77
2023/02/19 05:44:03;;;;;;;37.77;20.97;;;;;;;;;;5057589;28;20078;-76
2023/02/19 05:46:30;;;;;;;39.47;19.47;;;;;;;;;;5058479;28;20028;-77
2023/02/19 05:48:57;;;;;;;37.73;21.13;;;;;;;;;;5039582;28;20099;-76
2023/02/19 05:51:24;;;;;;;41.50;24.90;;;;;;;;;;5054622;28;20028;-76
2023/02/19 05:53:50;;;;;;;49.30;26.57;;;;;;;;;;5058022;28;20040;-77
2023/02/19 05:56:22;;;;;;;50.43;27.97;;;;;;;;;;5038796;28;20059;-76
2023/02/19 05:58:49;;;;;;;48.80;28.30;;;;;;;;;;5059233;28;20032;-77
2023/02/19 06:01:18;;;;;;;47.07;26.27;;;;;;;;;;5056549;28;20021;-76
2023/02/19 06:03:44;;;;;;;51.13;27.17;;;;;;;;;;5045958;28;20123;-75
2023/02/19 06:06:14;;;;;;;52.70;26.33;;;;;;;;;;5041341;28;20187;-74
2023/02/19 06:08:40;;;;;;;41.30;24.53;;;;;;;;;;5045277;28;20126;-76
2023/02/19 06:11:06;;;;;;;42.07;23.33;;;;;;;;;;5058475;28;20029;-76
2023/02/19 06:13:32;;;;;;;49.17;24.03;;;;;;;;;;5059686;28;20075;-75
2023/02/19 06:15:58;;;;;;;37.97;24.47;;;;;;;;;;5041557;28;20040;-76
2023/02/19 06:18:24;;;;;;;49.30;24.87;;;;;;;;;;5054951;28;20056;-75
2023/02/19 06:20:50;;;;;;;46.27;20.83;;;;;;;;;;5057893;28;20037;-74
2023/02/19 06:23:16;;;;;;;41.90;21.43;;;;;;;;;;5058322;28;20345;-75
2023/02/19 06:25:41;;;;;;;43.20;20.00;;;;;;;;;;5057734;28;20029;-76
2023/02/19 06:28:09;;;;;;;39.47;21.37;;;;;;;;;;5055428;28;20044;-76
2023/02/19 06:30:35;;;;;;;37.20;18.47;;;;;;;;;;5045719;28;20052;-76
2023/02/19 06:33:01;;;;;;;42.37;20.60;;;;;;;;;;5039312;28;20123;-76
2023/02/19 06:35:28;;;;;;;38.93;20.07;;;;;;;;;;5058933;28;20029;-74
2023/02/19 06:37:56;;;;;;;40.83;20.23;;;;;;;;;;5043094;28;20029;-76
2023/02/19 06:40:22;;;;;;;37.30;17.77;;;;;;;;;;5061850;28;20028;-76
2023/02/19 06:42:48;;;;;;;30.13;19.00;;;;;;;;;;5043978;28;21653;-76
2023/02/19 06:45:14;;;;;;;35.77;18.87;;;;;;;;;;5059446;28;20044;-76
2023/02/19 06:47:40;;;;;;;37.47;19.73;;;;;;;;;;5060524;28;20038;-77
2023/02/19 06:50:09;;;;;;;42.47;20.13;;;;;;;;;;5052631;28;20037;-76
2023/02/19 06:52:35;;;;;;;43.03;19.70;;;;;;;;;;5061960;28;20044;-76
2023/02/19 06:55:01;;;;;;;37.20;17.60;;;;;;;;;;5061074;28;20036;-75
2023/02/19 06:57:27;;;;;;;44.27;18.60;;;;;;;;;;5045867;28;20162;-75
2023/02/19 06:59:53;;;;;;;33.13;16.97;;;;;;;;;;5048333;28;20021;-76
2023/02/19 07:02:19;;;;;;;38.87;17.97;;;;;;;;;;5043212;28;20035;-76
2023/02/19 07:04:45;;;;;;;27.97;15.83;;;;;;;;;;5045356;28;20033;-76
2023/02/19 07:07:11;;;;;;;26.47;15.77;;;;;;;;;;5061624;28;20063;-76
2023/02/19 07:09:37;;;;;;;37.80;16.20;;;;;;;;;;5062853;28;20401;-75
2023/02/19 07:12:03;;;;;;;28.93;15.53;;;;;;;;;;5042968;28;20036;-76
2023/02/19 07:14:29;;;;;;;32.30;15.43;;;;;;;;;;5043018;28;20021;-75
2023/02/19 07:16:55;;;;;;;38.90;17.20;;;;;;;;;;5062054;28;20774;-76
2023/02/19 07:19:21;;;;;;;32.83;15.93;;;;;;;;;;5061422;28;20025;-76
2023/02/19 07:21:49;;;;;;;30.57;15.47;;;;;;;;;;5059296;28;20338;-76
2023/02/19 07:24:15;;;;;;;35.27;16.17;;;;;;;;;;5059690;28;20021;-75
2023/02/19 07:26:41;;;;;;;32.93;16.23;;;;;;;;;;5059635;28;20144;-76
2023/02/19 07:29:09;;;;;;;34.63;16.23;;;;;;;;;;5045420;28;20051;-75
2023/02/19 07:31:35;;;;;;;43.03;17.00;;;;;;;;;;5050934;28;20480;-76
2023/02/19 07:34:01;;;;;;;33.27;15.53;;;;;;;;;;5062560;28;20039;-76
2023/02/19 07:36:27;;;;;;;28.70;14.40;;;;;;;;;;5047589;28;20196;-76
2023/02/19 07:38:56;;;;;;;34.20;15.90;;;;;;;;;;5061688;28;20021;-75
2023/02/19 07:41:23;;;;;;;33.53;16.50;;;;;;;;;;5061952;28;20020;-77
2023/02/19 07:43:49;;;;;;;34.43;16.87;;;;;;;;;;5048484;28;20380;-77
2023/02/19 07:46:17;;;;;;;40.20;16.80;;;;;;;;;;5042235;28;20036;-77
2023/02/19 07:48:43;;;;;;;36.23;15.87;;;;;;;;;;5041971;28;20040;-76
2023/02/19 07:51:16;;;;;;;29.87;16.83;;;;;;;;;;5059850;28;20032;-77
2023/02/19 07:53:42;;;;;;;33.60;17.33;;;;;;;;;;5058359;28;20843;-76
2023/02/19 07:56:10;;;;;;;32.03;15.90;;;;;;;;;;5042310;28;20036;-77
2023/02/19 07:58:36;;;;;;;37.63;15.13;;;;;;;;;;5063404;28;20029;-76
2023/02/19 08:01:06;;;;;;;32.50;15.97;;;;;;;;;;5041563;28;20102;-76
2023/02/19 08:03:32;;;;;;;29.50;13.20;;;;;;;;;;5048310;28;20028;-76
2023/02/19 08:05:58;;;;;;;30.53;13.63;;;;;;;;;;5060871;28;20805;-77
2023/02/19 08:08:24;;;;;;;28.60;13.90;;;;;;;;;;5041296;28;20043;-76
2023/02/19 08:13:34;;;;;;;25.90;13.60;;;;;;;;;;5059853;28;20829;-77
2023/02/19 08:16:00;;;;;;;37.50;15.47;;;;;;;;;;5042726;28;20025;-77
2023/02/19 08:18:27;;;;;;;33.37;14.87;;;;;;;;;;5061129;28;20041;-77
2023/02/19 08:20:54;;;;;;;30.30;15.57;;;;;;;;;;5044670;28;20033;-77
2023/02/19 08:23:20;;;;;;;43.37;15.40;;;;;;;;;;5043375;28;20404;-77
2023/02/19 08:25:46;;;;;;;28.93;13.50;;;;;;;;;;5058489;28;20025;-77
2023/02/19 08:28:15;;;;;;;26.07;12.30;;;;;;;;;;5059981;28;20036;-77
2023/02/19 08:30:45;;;;;;;26.03;11.40;;;;;;;;;;5041954;28;20040;-77
2023/02/19 08:33:11;;;;;;;34.40;12.57;;;;;;;;;;5042209;28;20140;-76
2023/02/19 08:35:38;;;;;;;34.23;12.40;;;;;;;;;;5058620;28;20453;-77
2023/02/19 08:38:05;;;;;;;25.90;11.33;;;;;;;;;;5058425;28;20089;-75
2023/02/19 08:40:31;;;;;;;28.77;10.30;;;;;;;;;;5057419;28;20120;-76
2023/02/19 08:43:08;;;;;;;32.27;10.50;;;;;;;;;;5046061;28;20024;-76
2023/02/19 08:45:36;;;;;;;36.57;10.70;;;;;;;;;;5053770;28;20426;-75
2023/02/19 08:48:02;;;;;;;27.73;10.90;;;;;;;;;;5054062;28;20460;-76
2023/02/19 08:50:28;;;;;;;23.40;10.40;;;;;;;;;;5066592;28;20047;-75
2023/02/19 08:52:56;;;;;;;28.10;10.83;;;;;;;;;;5058889;28;20024;-76
2023/02/19 08:55:22;;;;;;;34.60;11.57;;;;;;;;;;5066674;28;20053;-76
2023/02/19 08:57:48;;;;;;;29.50;11.47;;;;;;;;;;5058365;28;20091;-75
2023/02/19 09:00:14;;;;;;;24.60;10.80;;;;;;;;;;5047758;28;20082;-75
2023/02/19 09:02:40;;;;;;;31.17;11.63;;;;;;;;;;5053792;28;20017;-75
2023/02/19 09:05:06;;;;;;;31.03;12.37;;;;;;;;;;5062889;28;20491;-76
2023/02/19 09:07:33;;;;;;;31.03;11.37;;;;;;;;;;5061271;28;20040;-77
2023/02/19 09:09:59;;;;;;;26.20;11.03;;;;;;;;;;5056543;28;20112;-76
2023/02/19 09:12:26;;;;;;;20.93;10.03;;;;;;;;;;5070273;28;20024;-75
2023/02/19 09:14:52;;;;;;;25.33;10.47;;;;;;;;;;5077472;28;20025;-76
2023/02/19 09:17:18;;;;;;;31.20;9.77;;;;;;;;;;5054046;28;20036;-75
2023/02/19 09:19:44;;;;;;;18.37;8.07;;;;;;;;;;5089703;28;20028;-76
2023/02/19 09:22:10;;;;;;;17.73;8.30;;;;;;;;;;5052442;28;20028;-76
2023/02/19 09:24:36;;;;;;;16.27;7.43;;;;;;;;;;5056647;28;20125;-74
2023/02/19 09:27:02;;;;;;;18.90;6.73;;;;;;;;;;5060440;28;20429;-76
2023/02/19 09:29:49;;;;;;;21.50;8.37;;;;;;;;;;5045112;28;20028;-75
2023/02/19 09:32:15;;;;;;;21.03;8.03;;;;;;;;;;5054427;28;20044;-76
2023/02/19 09:34:41;;;;;;;19.00;7.87;;;;;;;;;;5070179;28;20029;-76
2023/02/19 09:37:21;;;;;;;16.53;6.73;;;;;;;;;;5046414;28;20049;-76
2023/02/19 09:39:47;;;;;;;23.30;7.47;;;;;;;;;;5072212;28;20024;-77
2023/02/19 09:42:16;;;;;;;18.37;7.17;;;;;;;;;;5056062;28;20082;-77
2023/02/19 09:44:48;;;;;;;20.00;8.07;;;;;;;;;;5075089;28;20074;-77
2023/02/19 09:47:18;;;;;;;25.07;8.03;;;;;;;;;;5045281;28;20024;-76
2023/02/19 09:49:50;;;;;;;16.73;7.83;;;;;;;;;;5051433;28;20050;-75
2023/02/19 09:52:30;;;;;;;19.07;7.30;;;;;;;;;;5048439;28;20397;-77
2023/02/19 09:54:58;;;;;;;17.17;7.80;;;;;;;;;;5053291;28;20399;-75
2023/02/19 09:57:28;;;;;;;14.90;7.37;;;;;;;;;;5075908;28;20031;-74
2023/02/19 09:59:59;;;;;;;16.20;9.03;;;;;;;;;;5046712;28;20029;-74
2023/02/19 10:02:26;;;;;;;17.47;9.00;;;;;;;;;;5069459;28;20031;-75
2023/02/19 10:04:52;;;;;;;17.37;8.23;;;;;;;;;;5055805;28;20024;-75
2023/02/19 10:07:23;;;;;;;20.90;9.97;;;;;;;;;;5055941;28;20041;-74
2023/02/19 10:09:55;;;;;;;22.47;9.43;;;;;;;;;;5070876;28;20032;-75
2023/02/19 10:12:28;;;;;;;17.33;9.07;;;;;;;;;;5066030;28;20442;-75
2023/02/19 10:14:58;;;;;;;26.53;9.57;;;;;;;;;;5050340;28;20048;-74
2023/02/19 10:17:26;;;;;;;19.23;9.23;;;;;;;;;;5058369;28;20139;-74
2023/02/19 10:19:53;;;;;;;20.30;9.13;;;;;;;;;;5054790;28;20028;-75
2023/02/19 10:22:19;;;;;;;20.47;8.97;;;;;;;;;;5052171;28;20442;-74
2023/02/19 10:24:48;;;;;;;22.47;9.40;;;;;;;;;;5052072;28;20029;-74
2023/02/19 10:27:14;;;;;;;24.77;11.83;;;;;;;;;;5040081;28;21739;-73
2023/02/19 10:29:45;;;;;;;25.77;9.73;;;;;;;;;;5051879;28;20040;-75
2023/02/19 10:32:17;;;;;;;18.97;8.13;;;;;;;;;;5051936;28;20033;-73
2023/02/19 10:34:43;;;;;;;18.38;8.57;;;;;;;;;;5055113;28;20139;-74
2023/02/19 10:37:15;;;;;;;19.47;8.70;;;;;;;;;;5040141;28;20442;-75
2023/02/19 10:39:45;;;;;;;19.90;8.47;;;;;;;;;;5053608;28;20029;-75
2023/02/19 10:42:15;;;;;;;23.53;9.57;;;;;;;;;;5054956;28;20151;-76
2023/02/19 10:44:43;;;;;;;23.23;11.40;;;;;;;;;;5054336;28;20033;-75
2023/02/19 10:47:15;;;;;;;20.80;8.97;;;;;;;;;;5036290;28;20028;-75
2023/02/19 10:49:45;;;;;;;21.90;8.97;;;;;;;;;;5046230;28;20044;-74
2023/02/19 10:52:18;;;;;;;19.90;8.50;;;;;;;;;;5052558;28;20114;-74
2023/02/19 10:54:45;;;;;;;21.50;8.30;;;;;;;;;;5045311;28;20029;-76
2023/02/19 10:57:14;;;;;;;15.50;6.53;;;;;;;;;;5055000;28;20069;-75
2023/02/19 10:59:57;;;;;;;16.00;8.93;;;;;;;;;;5058309;28;20032;-76
2023/02/19 11:02:26;;;;;;;18.50;8.25;;;;;;;;;;5056241;28;20064;-75
2023/02/19 11:05:01;;;;;;;18.53;7.63;;;;;;;;;;5055618;28;20119;-76
2023/02/19 11:07:27;;;;;;;16.03;6.77;;;;;;;;;;5056947;28;20033;-75
2023/02/19 11:09:56;;;;;;;11.40;6.87;;;;;;;;;;5054892;28;20032;-76
2023/02/19 11:12:30;;;;;;;12.23;6.20;;;;;;;;;;5041704;28;20044;-74
2023/02/19 11:14:56;;;;;;;15.03;6.90;;;;;;;;;;5041795;28;20063;-75
2023/02/19 11:17:29;;;;;;;14.30;7.20;;;;;;;;;;5058278;28;20060;-76
2023/02/19 11:19:56;;;;;;;16.73;7.50;;;;;;;;;;5054296;28;20112;-74
2023/02/19 11:22:26;;;;;;;16.27;6.90;;;;;;;;;;5057093;28;20033;-75
2023/02/19 11:24:52;;;;;;;13.80;6.73;;;;;;;;;;5049753;28;20074;-76
2023/02/19 11:27:20;;;;;;;11.43;6.57;;;;;;;;;;5059448;28;20037;-75
2023/02/19 11:29:46;;;;;;;15.33;7.00;;;;;;;;;;5060409;28;20035;-75
2023/02/19 11:32:30;;;;;;;13.43;6.80;;;;;;;;;;5046850;28;20033;-75
2023/02/19 11:35:16;;;;;;;12.97;6.70;;;;;;;;;;5058171;28;20045;-75
2023/02/19 11:37:55;;;;;;;14.27;6.03;;;;;;;;;;5044853;28;20449;-75
2023/02/19 11:40:23;;;;;;;12.03;6.47;;;;;;;;;;5060158;28;20028;-75
2023/02/19 11:42:54;;;;;;;12.87;6.97;;;;;;;;;;5052469;28;20028;-75
2023/02/19 11:45:26;;;;;;;15.60;7.30;;;;;;;;;;5042720;28;20047;-76
2023/02/19 11:47:52;;;;;;;21.35;7.97;;;;;;;;;;5058230;28;20086;-76
2023/02/19 11:50:28;;;;;;;13.67;8.07;;;;;;;;;;5059600;28;20036;-74
2023/02/19 11:53:10;;;;;;;15.23;6.77;;;;;;;;;;5045275;28;20163;-75
2023/02/19 11:55:36;;;;;;;17.63;7.53;;;;;;;;;;5057555;28;20124;-75
2023/02/19 11:58:21;;;;;;;15.50;7.30;;;;;;;;;;5040315;28;20112;-75
2023/02/19 12:01:07;;;;;;;14.23;7.27;;;;;;;;;;5045631;28;20052;-74
2023/02/19 12:03:52;;;;;;;11.87;6.67;;;;;;;;;;5000515;28;20045;-74
2023/02/19 12:06:30;;;;;;;12.57;5.73;;;;;;;;;;5044350;28;20032;-75
2023/02/19 12:08:56;;;;;;;11.23;6.17;;;;;;;;;;5044183;28;20056;-75
2023/02/19 12:11:42;;;;;;;13.80;7.17;;;;;;;;;;5044569;28;20057;-75
2023/02/19 12:14:21;;;;;;;12.80;7.23;;;;;;;;;;5059379;28;20120;-76
2023/02/19 12:16:51;;;;;;;16.60;7.00;;;;;;;;;;5045598;28;20038;-76
2023/02/19 12:19:32;;;;;;;12.27;6.77;;;;;;;;;;5058194;28;20043;-75
2023/02/19 12:22:11;;;;;;;11.10;6.30;;;;;;;;;;5057026;28;20028;-75
2023/02/19 12:25:09;;;;;;;13.00;5.27;;;;;;;;;;5058252;28;20103;-76
2023/02/19 12:27:42;;;;;;;13.97;5.83;;;;;;;;;;5019670;28;20060;-76
2023/02/19 12:30:18;;;;;;;12.63;4.97;;;;;;;;;;5059170;28;20043;-75
2023/02/19 12:32:44;;;;;;;9.47;4.00;;;;;;;;;;5044945;28;20020;-75
2023/02/19 12:35:24;;;;;;;8.73;3.47;;;;;;;;;;5057373;28;20032;-77
2023/02/19 12:38:23;;;;;;;4.80;3.20;;;;;;;;;;5042448;28;20036;-77
2023/02/19 12:40:58;;;;;;;11.07;3.77;;;;;;;;;;5011954;28;20214;-76
2023/02/19 12:43:24;;;;;;;7.37;3.70;;;;;;;;;;5058432;28;20531;-75
2023/02/19 12:45:59;;;;;;;9.73;3.20;;;;;;;;;;5042111;28;20044;-76
2023/02/19 12:48:25;;;;;;;4.13;3.13;;;;;;;;;;5058458;28;20044;-76
2023/02/19 12:50:55;;;;;;;5.87;3.00;;;;;;;;;;5044013;28;20037;-76
2023/02/19 12:53:24;;;;;;;10.67;3.30;;;;;;;;;;5058262;28;21511;-76
2023/02/19 12:55:51;;;;;;;7.10;3.27;;;;;;;;;;5041028;28;20028;-76
2023/02/19 12:58:37;;;;;;;9.07;3.73;;;;;;;;;;5056442;28;20025;-76
2023/02/19 13:01:03;;;;;;;8.10;4.07;;;;;;;;;;5059615;28;20036;-74
2023/02/19 13:03:29;;;;;;;8.97;4.57;;;;;;;;;;5057653;28;20021;-75
2023/02/19 13:05:59;;;;;;;12.13;4.37;;;;;;;;;;5058731;28;20182;-75
2023/02/19 13:08:32;;;;;;;12.23;5.80;;;;;;;;;;5040010;28;20039;-76
2023/02/19 13:11:04;;;;;;;11.70;6.65;;;;;;;;;;5043426;28;20033;-75
2023/02/19 13:13:30;;;;;;;;;;;;;;;;;;5043232;28;20033;-75
2023/02/19 13:15:58;;;;;;;12.70;7.13;;;;;;;;;;5042694;28;19913;-76
2023/02/19 13:18:27;;;;;;;8.57;5.73;;;;;;;;;;5059103;28;20025;-76
2023/02/19 13:20:55;;;;;;;15.40;5.93;;;;;;;;;;5056856;28;20033;-76
2023/02/19 13:26:15;;;;;;;15.13;4.90;;;;;;;;;;5059863;28;20095;-75
2023/02/19 13:28:59;;;;;;;8.40;3.50;;;;;;;;;;5044759;28;20603;-75
2023/02/19 13:31:44;;;;;;;5.70;3.30;;;;;;;;;;5047940;28;20075;-75
2023/02/19 13:34:29;;;;;;;9.00;3.30;;;;;;;;;;5056289;28;20043;-77
2023/02/19 13:36:55;;;;;;;5.23;3.33;;;;;;;;;;5039038;28;20330;-75
2023/02/19 13:39:21;;;;;;;6.80;4.13;;;;;;;;;;5056837;28;20028;-75
2023/02/19 13:42:00;;;;;;;10.10;3.97;;;;;;;;;;5059744;28;20029;-75
2023/02/19 13:44:30;;;;;;;6.93;3.97;;;;;;;;;;5057861;28;20025;-75
2023/02/19 13:46:56;;;;;;;8.03;3.60;;;;;;;;;;5058078;28;20098;-75
2023/02/19 13:49:22;;;;;;;6.37;3.77;;;;;;;;;;5049262;28;20024;-75
2023/02/19 13:51:52;;;;;;;6.30;3.97;;;;;;;;;;5040424;28;20040;-75
2023/02/19 13:54:30;;;;;;;6.03;3.73;;;;;;;;;;5056367;28;20032;-75
2023/02/19 13:57:14;;;;;;;6.37;4.67;;;;;;;;;;5056776;28;20076;-76
2023/02/19 13:59:41;;;;;;;8.57;4.77;;;;;;;;;;5058871;28;20460;-75
2023/02/19 14:02:13;;;;;;;7.80;4.90;;;;;;;;;;5039823;28;20033;-75
2023/02/19 14:04:50;;;;;;;8.52;5.15;;;;;;;;;;5057744;28;20151;-75
2023/02/19 14:07:16;;;;;;;10.20;6.03;;;;;;;;;;5055799;28;20032;-75
2023/02/19 14:09:45;;;;;;;9.67;5.77;;;;;;;;;;5039736;28;20033;-76
2023/02/19 14:12:16;;;;;;;13.00;7.90;;;;;;;;;;5039630;28;20127;-75
2023/02/19 14:14:45;;;;;;;10.27;6.30;;;;;;;;;;5041031;28;20032;-76
2023/02/19 14:17:23;;;;;;;9.80;6.20;;;;;;;;;;5053540;28;20044;-75
2023/02/19 14:19:54;;;;;;;15.53;7.80;;;;;;;;;;5055482;28;20128;-75
2023/02/19 14:22:39;;;;;;;13.07;7.60;;;;;;;;;;5039924;28;20033;-76
2023/02/19 14:25:09;;;;;;;12.87;7.67;;;;;;;;;;5056661;28;20094;-77
2023/02/19 14:27:35;;;;;;;15.63;7.13;;;;;;;;;;5057329;28;20064;-74
2023/02/19 14:30:01;;;;;;;15.37;7.83;;;;;;;;;;5048394;28;20029;-75
2023/02/19 14:32:27;;;;;;;12.53;7.47;;;;;;;;;;5057733;28;20086;-75
2023/02/19 14:34:56;;;;;;;14.40;8.47;;;;;;;;;;5061274;28;21538;-76
2023/02/19 14:37:25;;;;;;;19.03;8.83;;;;;;;;;;5057715;28;20041;-75
2023/02/19 14:39:53;;;;;;;18.13;10.30;;;;;;;;;;5045399;28;20481;-75
2023/02/19 14:42:25;;;;;;;17.17;10.20;;;;;;;;;;5045671;28;20430;-75
2023/02/19 14:44:56;;;;;;;19.70;9.77;;;;;;;;;;5057054;28;20032;-75
2023/02/19 14:47:23;;;;;;;17.57;9.37;;;;;;;;;;5065747;28;20036;-75
2023/02/19 14:49:51;;;;;;;22.30;11.27;;;;;;;;;;5064206;28;20032;-76
2023/02/19 14:52:20;;;;;;;17.63;10.87;;;;;;;;;;5044851;28;20029;-75
2023/02/19 14:55:05;;;;;;;22.67;10.93;;;;;;;;;;5048616;28;20048;-75
2023/02/19 14:57:50;;;;;;;18.27;11.43;;;;;;;;;;5047838;28;20131;-76
2023/02/19 15:00:19;;;;;;;21.63;11.70;;;;;;;;;;5066726;28;20025;-76
2023/02/19 15:02:45;;;;;;;22.47;12.43;;;;;;;;;;5063174;28;20025;-76
2023/02/19 15:05:14;;;;;;;26.63;13.30;;;;;;;;;;5052328;28;20036;-75
2023/02/19 15:07:41;;;;;;;20.20;11.20;;;;;;;;;;5051104;28;20454;-74